Terminal Aerodrome Forecast
Issued by NWS

Home | Current Version | Previous Version | Graphics & Text | Print | Product List | Glossary On
Versions: 1 2 3 4 5 6 7 8 9 10 11 12 13 14 15 16 17 18 19 20 21 22 23
000
FTUS43 KMPX 230500 RRA
TAFRWF
TAF
KRWF 230547Z 2306/2406 20009KT 6SM BR BKN120
     FM231200 28010KT P6SM BKN070
     FM240000 31016G27KT P6SM BKN015=

USA.gov is the U.S. government's official web portal to all federal, state and local government web resources and services.